Time;durP1;ratioP1;P1;durP2;ratioP2;P2;SDS_P1;SDS_P2;PMS_P1;PMS_P2;Temp;Humidity;BMP_temperature;BMP_pressure;BME280_temperature;BME280_humidity;BME280_pressure;Samples;Min_cycle;Max_cycle;Signal;HPM_P1;HPM_P2
2021/06/13 00:00:36;;;;;;;4.75;1.25;;;;;;;14.31;59.10;100502.28;10505022;28;20402;-72
2021/06/13 00:05:38;;;;;;;5.00;1.85;;;;;;;14.05;59.73;100500.66;10505411;28;20048;-73
2021/06/13 00:10:39;;;;;;;4.22;1.60;;;;;;;13.93;60.84;100516.97;10506491;28;20040;-72
2021/06/13 00:15:41;;;;;;;9.50;1.88;;;;;;;13.97;59.61;100523.84;10505383;28;20088;-71
2021/06/13 00:20:44;;;;;;;3.35;1.10;;;;;;;13.84;60.01;100535.81;10504188;28;20098;-71
2021/06/13 00:25:46;;;;;;;3.42;1.27;;;;;;;13.71;60.35;100534.53;10504995;28;20041;-71
2021/06/13 00:30:48;;;;;;;2.20;1.05;;;;;;;13.71;59.91;100537.19;10505534;28;20397;-73
2021/06/13 00:35:49;;;;;;;4.20;1.30;;;;;;;13.60;60.59;100543.72;10504003;28;20433;-71
2021/06/13 00:40:51;;;;;;;3.70;1.30;;;;;;;13.61;59.88;100547.22;10503505;28;20045;-71
2021/06/13 00:45:54;;;;;;;3.35;1.27;;;;;;;13.54;60.39;100543.94;10503245;28;20044;-72
2021/06/13 00:50:56;;;;;;;4.35;1.60;;;;;;;13.42;61.02;100547.03;10503340;28;20093;-71
2021/06/13 00:55:59;;;;;;;5.68;1.42;;;;;;;13.29;61.04;100562.44;10502696;28;20036;-71
2021/06/13 01:01:03;;;;;;;3.42;1.48;;;;;;;13.33;61.07;100566.69;10501643;28;20135;-73
2021/06/13 01:06:10;;;;;;;8.20;1.48;;;;;;;13.25;61.58;100566.09;10504238;28;20529;-72
2021/06/13 01:11:36;;;;;;;4.53;2.00;;;;;;;13.19;62.18;100565.38;10502671;28;20135;-72
2021/06/13 01:16:39;;;;;;;;;;;;;;;13.24;61.91;100564.38;10501834;28;20044;-71
2021/06/13 01:22:20;;;;;;;4.05;1.48;;;;;;;13.13;62.52;100567.31;10502155;28;19974;-72
2021/06/13 01:27:49;;;;;;;4.45;1.60;;;;;;;13.01;63.08;100569.50;10500962;28;20044;-71
2021/06/13 01:32:53;;;;;;;3.28;1.50;;;;;;;13.05;62.35;100568.50;10502490;28;20467;-72
2021/06/13 01:37:56;;;;;;;4.85;1.83;;;;;;;12.99;62.92;100574.84;10501822;28;20490;-71
2021/06/13 01:42:59;;;;;;;5.35;1.85;;;;;;;12.90;63.07;100579.56;10500578;28;20386;-72
2021/06/13 01:48:01;;;;;;;4.53;1.85;;;;;;;12.77;63.76;100577.31;10500900;28;20072;-70
2021/06/13 01:53:10;;;;;;;2.03;1.45;;;;;;;12.57;64.29;100587.63;10500947;28;20119;-71
2021/06/13 01:58:14;;;;;;;6.30;1.95;;;;;;;12.75;63.51;100583.56;10501315;28;20047;-72
2021/06/13 02:03:29;;;;;;;8.30;2.38;;;;;;;12.57;64.46;100593.78;10501120;28;20044;-71
2021/06/13 02:08:52;;;;;;;4.38;2.22;;;;;;;12.41;64.37;100599.56;10501841;28;20413;-72
2021/06/13 02:13:57;;;;;;;7.43;2.42;;;;;;;12.45;63.96;100604.72;10499857;28;20049;-71
2021/06/13 02:19:06;;;;;;;5.53;2.03;;;;;;;12.43;63.93;100617.06;10500425;28;20044;-72
2021/06/13 02:24:12;;;;;;;10.13;2.40;;;;;;;12.38;64.20;100617.19;10501355;28;20437;-71
2021/06/13 02:29:15;;;;;;;5.70;2.33;;;;;;;12.25;64.37;100621.09;10500288;28;20040;-72
2021/06/13 02:34:25;;;;;;;4.32;2.42;;;;;;;12.22;64.27;100631.75;10499861;28;20047;-72
2021/06/13 02:39:28;;;;;;;3.67;2.10;;;;;;;12.29;63.55;100633.28;10499775;28;20119;-72
2021/06/13 02:44:33;;;;;;;4.90;2.00;;;;;;;12.21;64.29;100647.59;10499009;28;20041;-71
2021/06/13 02:49:35;;;;;;;8.80;2.35;;;;;;;12.15;64.33;100655.69;10498715;28;20056;-73
2021/06/13 02:54:41;;;;;;;3.78;1.70;;;;;;;12.22;63.69;100662.50;10497988;28;20457;-72
2021/06/13 02:59:56;;;;;;;4.13;2.08;;;;;;;12.17;64.50;100673.19;10500305;28;20078;-71
2021/06/13 03:05:02;;;;;;;4.75;2.17;;;;;;;12.25;63.48;100672.97;10501590;28;20044;-71
2021/06/13 03:10:08;;;;;;;6.70;2.58;;;;;;;12.15;63.34;100684.69;10498989;28;20048;-71
2021/06/13 03:15:10;;;;;;;8.27;2.30;;;;;;;12.14;62.99;100688.22;10500037;28;20094;-71
2021/06/13 03:20:13;;;;;;;8.00;2.65;;;;;;;12.16;62.61;100697.81;10500675;28;20120;-71
2021/06/13 03:25:17;;;;;;;5.25;2.45;;;;;;;12.17;63.00;100701.31;10504180;28;20060;-71
2021/06/13 03:30:21;;;;;;;4.40;1.95;;;;;;;12.14;63.18;100709.31;10506960;28;20037;-71
2021/06/13 03:35:29;;;;;;;5.78;2.33;;;;;;;11.86;63.48;100718.81;10508041;28;20602;-72
2021/06/13 03:40:31;;;;;;;5.22;2.33;;;;;;;12.08;63.29;100734.03;10510118;28;20037;-72
2021/06/13 03:45:35;;;;;;;6.68;2.40;;;;;;;12.00;64.07;100729.00;10509360;28;20040;-70
2021/06/13 03:50:37;;;;;;;6.00;2.30;;;;;;;12.20;63.76;100725.81;10509486;28;20036;-71
2021/06/13 03:55:40;;;;;;;4.75;2.20;;;;;;;12.45;62.53;100740.97;10508436;28;20040;-73
2021/06/13 04:00:44;;;;;;;5.35;2.42;;;;;;;12.61;61.11;100748.38;10509824;28;20094;-71
2021/06/13 04:05:49;;;;;;;5.18;1.98;;;;;;;12.61;62.16;100753.66;10509831;28;20127;-71
2021/06/13 04:10:52;;;;;;;12.73;2.83;;;;;;;12.65;61.26;100756.19;10506862;28;20060;-70
2021/06/13 04:15:54;;;;;;;3.83;2.25;;;;;;;12.55;62.02;100759.09;10506745;28;20044;-71
2021/06/13 04:20:56;;;;;;;9.38;2.50;;;;;;;12.64;62.79;100768.53;10507884;28;20444;-69
2021/06/13 04:25:58;;;;;;;4.47;2.47;;;;;;;12.53;63.18;100776.75;10507386;28;20050;-71
2021/06/13 04:31:03;;;;;;;4.68;2.08;;;;;;;12.67;61.73;100768.44;10505009;28;20452;-71
2021/06/13 04:36:06;;;;;;;6.15;2.50;;;;;;;12.51;61.94;100775.06;10504452;28;20053;-72
2021/06/13 04:41:09;;;;;;;6.43;3.10;;;;;;;12.54;62.09;100769.72;10505010;28;20052;-72
2021/06/13 04:46:11;;;;;;;6.65;2.40;;;;;;;12.61;61.62;100773.88;10505624;28;20544;-71
2021/06/13 04:51:13;;;;;;;6.43;2.47;;;;;;;12.81;61.03;100776.81;10505369;28;20072;-71
2021/06/13 04:56:25;;;;;;;7.32;2.50;;;;;;;12.68;61.96;100787.78;10504717;28;20101;-70
2021/06/13 05:01:27;;;;;;;5.55;2.45;;;;;;;12.81;62.02;100791.78;10504315;28;20501;-71
2021/06/13 05:06:29;;;;;;;7.60;3.10;;;;;;;12.81;62.79;100791.78;10506253;28;20040;-70
2021/06/13 05:11:30;;;;;;;7.97;3.63;;;;;;;12.80;62.56;100792.72;10503924;28;20089;-71
2021/06/13 05:16:32;;;;;;;5.78;2.53;;;;;;;12.80;62.70;100808.53;10506636;28;20127;-71
2021/06/13 05:21:34;;;;;;;5.78;2.75;;;;;;;12.82;62.85;100811.97;10505072;28;20119;-71
2021/06/13 05:26:36;;;;;;;6.35;2.50;;;;;;;12.98;62.01;100804.50;10504700;28;20041;-71
2021/06/13 05:31:38;;;;;;;10.73;2.97;;;;;;;12.84;62.47;100813.69;10502992;28;20598;-72
2021/06/13 05:36:39;;;;;;;6.60;2.90;;;;;;;13.28;60.84;100803.63;10504070;28;20127;-70
2021/06/13 05:41:41;;;;;;;6.78;2.30;;;;;;;13.37;60.96;100828.88;10502978;28;20052;-70
2021/06/13 05:46:43;;;;;;;4.25;2.53;;;;;;;13.33;60.96;100814.91;10504197;28;20542;-71
2021/06/13 05:51:44;;;;;;;7.95;2.72;;;;;;;13.55;60.52;100819.53;10503167;28;20101;-71
2021/06/13 05:56:46;;;;;;;6.97;2.95;;;;;;;13.45;59.79;100816.28;10503282;28;20494;-71
2021/06/13 06:01:48;;;;;;;6.60;2.65;;;;;;;13.92;57.83;100818.31;10502454;28;20409;-71
2021/06/13 06:06:49;;;;;;;6.57;2.10;;;;;;;13.95;57.10;100819.09;10503744;28;20045;-71
2021/06/13 06:11:51;;;;;;;6.40;2.60;;;;;;;14.44;57.41;100820.06;10504180;28;20447;-71
2021/06/13 06:16:52;;;;;;;4.57;1.73;;;;;;;14.30;56.09;100838.19;10504019;28;20059;-71
2021/06/13 06:21:54;;;;;;;7.22;1.88;;;;;;;13.97;56.32;100841.03;10502219;28;20049;-71
2021/06/13 06:26:56;;;;;;;7.53;2.35;;;;;;;13.82;57.30;100849.47;10504409;28;20498;-71
2021/06/13 06:31:58;;;;;;;11.70;2.40;;;;;;;14.10;54.85;100847.66;10503385;28;20107;-71
2021/06/13 06:37:00;;;;;;;6.47;2.28;;;;;;;13.89;56.22;100849.22;10505171;28;20493;-71
2021/06/13 06:42:02;;;;;;;7.07;1.92;;;;;;;13.44;56.55;100855.94;10502972;28;20123;-72
2021/06/13 06:47:04;;;;;;;7.20;2.33;;;;;;;13.24;57.78;100862.69;10501276;28;20060;-72
2021/06/13 06:52:06;;;;;;;4.15;1.80;;;;;;;13.83;56.03;100853.84;10501782;28;20087;-70
2021/06/13 06:57:09;;;;;;;6.15;2.25;;;;;;;14.14;55.19;100859.00;10500729;28;20071;-72
2021/06/13 07:02:12;;;;;;;5.95;1.95;;;;;;;14.05;56.52;100869.88;10508917;28;20071;-71
2021/06/13 07:07:14;;;;;;;5.75;2.00;;;;;;;14.08;56.00;100881.22;10510025;28;20040;-72
2021/06/13 07:12:15;;;;;;;4.72;2.00;;;;;;;14.47;55.07;100894.00;10509102;28;20045;-70
2021/06/13 07:17:17;;;;;;;6.30;2.22;;;;;;;14.40;55.36;100889.84;10510592;28;20044;-72
2021/06/13 07:22:19;;;;;;;5.07;2.22;;;;;;;14.04;55.41;100889.31;10510960;28;20055;-71
2021/06/13 07:27:21;;;;;;;5.95;2.33;;;;;;;13.98;56.86;100897.41;10510396;28;20086;-71
2021/06/13 07:32:22;;;;;;;6.15;2.40;;;;;;;14.05;57.93;100907.75;10510456;28;20465;-72
2021/06/13 07:37:24;;;;;;;7.78;3.28;;;;;;;14.09;58.07;100912.03;10510326;28;20131;-71
2021/06/13 07:42:26;;;;;;;4.57;1.85;;;;;;;14.38;56.68;100911.03;10509732;28;20037;-72
2021/06/13 07:47:30;;;;;;;5.57;2.30;;;;;;;14.22;56.35;100909.84;10504059;28;20044;-72
2021/06/13 07:52:32;;;;;;;5.43;2.10;;;;;;;14.30;56.15;100915.75;10494022;28;20079;-71
2021/06/13 07:57:34;;;;;;;7.93;2.10;;;;;;;14.29;56.21;100921.06;10478254;28;20056;-72
2021/06/13 08:02:37;;;;;;;7.32;2.05;;;;;;;14.67;55.98;100921.59;10434092;28;20045;-71
2021/06/13 08:07:39;;;;;;;5.72;2.30;;;;;;;14.65;54.72;100919.00;10499768;28;20527;-71
2021/06/13 08:12:41;;;;;;;7.30;2.10;;;;;;;14.27;55.50;100917.63;10508272;28;20470;-72
2021/06/13 08:17:43;;;;;;;6.50;2.70;;;;;;;14.37;56.59;100916.41;10508152;28;20037;-71
2021/06/13 08:22:45;;;;;;;5.57;2.28;;;;;;;14.45;55.42;100922.28;10490091;28;20068;-70
2021/06/13 08:27:48;;;;;;;5.63;2.13;;;;;;;14.51;54.50;100927.41;10465625;28;20139;-73
2021/06/13 08:32:50;;;;;;;5.70;2.38;;;;;;;14.54;56.04;100929.09;10464997;28;20049;-72
2021/06/13 08:37:51;;;;;;;4.45;2.85;;;;;;;14.66;56.25;100941.91;10471523;28;20061;-70
2021/06/13 08:42:54;;;;;;;4.93;2.58;;;;;;;14.68;54.97;100941.84;10467587;28;20072;-72
2021/06/13 08:47:57;;;;;;;5.22;2.15;;;;;;;14.57;55.57;100943.09;10494983;28;20044;-71
2021/06/13 08:52:59;;;;;;;10.30;2.55;;;;;;;14.78;54.55;100944.13;10506080;28;20045;-71
2021/06/13 08:58:04;;;;;;;9.02;2.28;;;;;;;15.05;54.51;100942.31;10535045;22;20138;-72
2021/06/13 09:03:07;;;;;;;4.32;2.00;;;;;;;14.96;53.11;100939.09;10533848;28;20048;-72
2021/06/13 09:08:14;;;;;;;7.43;1.80;;;;;;;14.87;53.44;100958.81;10551969;28;20045;-72
2021/06/13 09:13:22;;;;;;;6.40;2.30;;;;;;;14.80;52.79;100952.03;10545099;28;20044;-72
2021/06/13 09:18:29;;;;;;;5.03;2.30;;;;;;;14.74;53.31;100958.41;10545600;28;20039;-73
2021/06/13 09:23:35;;;;;;;5.00;2.67;;;;;;;14.69;53.49;100954.16;10548281;28;20040;-73
2021/06/13 09:28:41;;;;;;;4.00;2.42;;;;;;;15.08;54.27;100957.19;10534736;28;20044;-72
2021/06/13 09:33:44;;;;;;;8.88;2.28;;;;;;;15.53;52.25;100964.38;10538041;28;20052;-72
2021/06/13 09:38:48;;;;;;;7.72;2.65;;;;;;;15.41;52.35;100965.72;10545496;28;20417;-73
2021/06/13 09:44:00;;;;;;;4.72;2.10;;;;;;;15.89;51.39;100965.69;10536246;28;20036;-72
2021/06/13 09:49:09;;;;;;;5.38;1.92;;;;;;;16.06;50.20;100982.69;10490688;28;20047;-72
2021/06/13 09:54:30;;;;;;;7.28;2.55;;;;;;;15.49;51.07;100982.19;10490278;28;20040;-73
2021/06/13 09:59:33;;;;;;;6.72;2.40;;;;;;;15.48;52.48;100985.75;10488266;28;20040;-74
2021/06/13 10:04:39;;;;;;;6.10;2.35;;;;;;;15.86;53.47;100988.78;10549039;28;20043;-72
2021/06/13 10:09:54;;;;;;;4.75;1.80;;;;;;;15.76;51.43;100983.00;10549218;28;20036;-73
2021/06/13 10:15:11;;;;;;;3.85;1.80;;;;;;;15.89;50.55;101007.22;10534781;28;20083;-73
2021/06/13 10:20:24;;;;;;;7.20;2.38;;;;;;;15.55;50.80;100994.34;10531314;28;20060;-73
2021/06/13 10:25:26;;;;;;;5.78;1.92;;;;;;;15.36;50.12;100989.75;10530828;28;20047;-73
2021/06/13 10:30:27;;;;;;;3.85;1.98;;;;;;;15.16;51.42;100997.53;10545923;28;20227;-73
2021/06/13 10:35:29;;;;;;;4.95;2.00;;;;;;;15.36;50.07;100992.38;10532961;28;20047;-73
2021/06/13 10:40:32;;;;;;;5.15;2.08;;;;;;;15.19;51.58;100999.22;10486994;28;20041;-73
2021/06/13 10:45:34;;;;;;;5.85;2.30;;;;;;;15.46;53.09;101010.59;10484867;28;20044;-72
2021/06/13 10:50:39;;;;;;;4.45;1.88;;;;;;;15.47;51.18;101009.66;10502538;28;20055;-72
2021/06/13 10:55:52;;;;;;;5.25;2.40;;;;;;;15.25;52.72;101014.88;10484334;28;20072;-72
2021/06/13 11:01:22;;;;;;;5.18;1.73;;;;;;;15.48;51.58;101008.75;10502636;28;20064;-73
2021/06/13 11:06:46;;;;;;;4.55;2.25;;;;;;;15.51;50.59;101011.28;10502402;28;20040;-73
2021/06/13 11:11:55;;;;;;;7.57;2.30;;;;;;;15.49;49.99;101010.47;10488465;28;20048;-71
2021/06/13 11:16:59;;;;;;;4.22;2.03;;;;;;;15.53;50.30;101009.44;10486452;28;20048;-74
2021/06/13 11:22:17;;;;;;;3.35;1.98;;;;;;;15.86;50.63;101010.00;10501833;28;20052;-72
2021/06/13 11:27:19;;;;;;;5.38;2.00;;;;;;;16.13;51.16;101021.34;10481135;28;20064;-72
2021/06/13 11:32:49;;;;;;;4.13;1.85;;;;;;;15.89;49.46;101012.53;10498772;28;20090;-72
2021/06/13 11:38:09;;;;;;;3.85;1.80;;;;;;;16.10;48.18;101006.38;10534066;28;20525;-72
2021/06/13 11:43:14;;;;;;;4.60;1.70;;;;;;;16.18;49.00;101016.72;10543130;28;20059;-72
2021/06/13 11:48:21;;;;;;;4.50;2.10;;;;;;;16.13;48.97;101016.88;10546773;28;20059;-74
2021/06/13 11:53:52;;;;;;;5.50;2.72;;;;;;;16.30;49.03;101010.94;10536274;28;20048;-74
2021/06/13 11:58:58;;;;;;;6.00;1.80;;;;;;;16.57;50.35;101008.09;10555053;28;20044;-73
2021/06/13 12:04:01;;;;;;;5.53;2.10;;;;;;;16.89;48.22;101022.69;10554347;28;20408;-74
2021/06/13 12:09:09;;;;;;;6.10;2.13;;;;;;;16.90;47.98;101019.97;10553151;28;20047;-75
2021/06/13 12:14:25;;;;;;;5.68;3.10;;;;;;;16.83;47.70;101034.44;10551437;28;20047;-74
2021/06/13 12:19:30;;;;;;;;;;;;;;;17.08;47.72;101026.28;10516804;28;20065;-74
2021/06/13 12:24:39;;;;;;;5.38;1.70;;;;;;;17.19;48.59;101022.31;10536297;28;19920;-74
2021/06/13 12:29:41;;;;;;;3.75;1.58;;;;;;;16.78;48.15;101032.91;10531528;28;20401;-73
2021/06/13 12:34:52;;;;;;;6.25;2.15;;;;;;;16.35;48.57;101031.97;10548770;28;20124;-74
2021/06/13 12:39:55;;;;;;;6.38;2.35;;;;;;;16.59;48.63;101028.31;10549269;28;20058;-73
2021/06/13 12:45:00;;;;;;;6.22;2.30;;;;;;;16.70;48.96;101021.72;10552510;28;20047;-74
2021/06/13 12:50:03;;;;;;;8.65;2.55;;;;;;;16.84;49.17;101019.38;10531592;28;20511;-74
2021/06/13 12:55:07;;;;;;;5.20;2.13;;;;;;;17.21;47.94;101026.63;10548830;28;20093;-74
2021/06/13 13:00:12;;;;;;;;;;;;;;;17.48;47.15;101015.69;10512027;28;20451;-74
2021/06/13 13:05:16;;;;;;;7.03;2.15;;;;;;;17.37;46.46;101022.38;10548504;28;19928;-74
2021/06/13 13:10:23;;;;;;;3.53;1.98;;;;;;;16.98;48.10;101018.78;10550222;28;20051;-73
2021/06/13 13:15:30;;;;;;;4.50;2.60;;;;;;;17.22;47.13;101009.78;10550914;28;20044;-75
2021/06/13 13:20:33;;;;;;;5.07;1.85;;;;;;;17.36;46.95;101001.19;10549792;28;20091;-72
2021/06/13 13:25:39;;;;;;;7.65;2.10;;;;;;;17.54;46.40;101000.34;10534147;28;20497;-76
2021/06/13 13:30:41;;;;;;;6.93;2.90;;;;;;;17.76;46.38;100991.44;10537764;28;20040;-74
2021/06/13 13:35:44;;;;;;;4.30;2.03;;;;;;;17.74;46.79;100991.50;10534223;28;20498;-73
2021/06/13 13:40:49;;;;;;;3.88;2.40;;;;;;;18.26;45.74;100986.38;10507732;28;20044;-74
2021/06/13 13:45:51;;;;;;;6.03;2.22;;;;;;;18.03;46.22;100987.47;10503356;28;20135;-74
2021/06/13 13:51:07;;;;;;;5.38;2.42;;;;;;;17.31;47.94;101004.06;10488092;28;20044;-74
2021/06/13 13:56:24;;;;;;;5.28;3.17;;;;;;;16.97;48.46;100998.47;10485934;28;20127;-73
2021/06/13 14:01:28;;;;;;;4.72;2.33;;;;;;;16.89;49.21;101009.41;10501293;28;20036;-72
2021/06/13 14:06:29;;;;;;;4.72;2.83;;;;;;;17.28;48.61;101004.19;10500936;28;20350;-73
2021/06/13 14:11:31;;;;;;;6.35;2.55;;;;;;;17.28;47.62;101001.53;10499990;28;20048;-74
2021/06/13 14:16:33;;;;;;;4.78;2.55;;;;;;;17.66;46.69;100998.91;10497401;28;20068;-72
2021/06/13 14:21:35;;;;;;;6.22;2.67;;;;;;;18.42;47.15;100991.81;10499433;28;20035;-74
2021/06/13 14:26:38;;;;;;;5.40;2.40;;;;;;;18.78;46.08;100997.13;10483478;28;20094;-75
2021/06/13 14:31:39;;;;;;;5.28;2.85;;;;;;;18.71;45.48;100984.19;10502365;28;20093;-77
2021/06/13 14:36:42;;;;;;;8.15;2.60;;;;;;;18.67;47.04;100984.31;10504538;28;20064;-74
2021/06/13 14:41:44;;;;;;;5.82;3.10;;;;;;;18.54;45.44;100980.53;10500324;28;20115;-73
2021/06/13 14:46:46;;;;;;;4.80;2.47;;;;;;;18.21;45.91;100984.88;10501059;28;20402;-74
2021/06/13 14:51:48;;;;;;;6.60;2.80;;;;;;;18.06;46.26;100971.38;10482965;28;20036;-75
2021/06/13 14:56:50;;;;;;;5.97;2.70;;;;;;;18.50;46.63;100984.28;10482956;28;21529;-72
2021/06/13 15:01:51;;;;;;;5.40;2.70;;;;;;;18.31;45.93;100976.34;10481492;28;20040;-70
2021/06/13 15:06:53;;;;;;;8.30;3.08;;;;;;;18.10;47.13;100972.91;10499918;28;20050;-71
2021/06/13 15:11:55;;;;;;;5.22;2.75;;;;;;;18.15;46.45;100976.25;10498611;28;20040;-71
2021/06/13 15:16:57;;;;;;;5.47;2.70;;;;;;;18.24;45.54;100968.72;10464639;28;20474;-70
2021/06/13 15:21:59;;;;;;;4.85;3.28;;;;;;;18.89;45.20;100969.94;10502455;28;20120;-71
2021/06/13 15:27:02;;;;;;;4.97;2.65;;;;;;;19.63;42.63;100967.78;10489162;28;20046;-69
2021/06/13 15:32:07;;;;;;;5.97;2.78;;;;;;;19.77;42.74;100959.03;10506766;28;20042;-70
2021/06/13 15:37:09;;;;;;;4.50;2.45;;;;;;;19.77;42.17;100956.38;10517080;28;20409;-70
2021/06/13 15:42:16;;;;;;;5.78;2.75;;;;;;;19.77;43.12;100966.19;10548637;28;20512;-71
2021/06/13 15:47:22;;;;;;;8.70;2.90;;;;;;;20.58;41.37;100957.09;10545815;28;20081;-71
2021/06/13 15:52:24;;;;;;;6.82;6.05;;;;;;;19.28;43.65;100955.47;10546853;28;20044;-70
2021/06/13 15:57:25;;;;;;;4.50;2.83;;;;;;;18.71;45.25;100957.56;10549501;28;20480;-71
2021/06/13 16:02:27;;;;;;;5.55;2.53;;;;;;;18.85;45.03;100955.91;10549381;28;20055;-71
2021/06/13 16:07:31;;;;;;;5.40;3.00;;;;;;;18.92;45.81;100955.59;10530214;28;20052;-70
2021/06/13 16:12:33;;;;;;;5.45;2.90;;;;;;;19.28;44.44;100961.66;10546533;28;20059;-71
2021/06/13 16:17:35;;;;;;;8.52;3.03;;;;;;;18.85;44.85;100965.69;10547184;28;20040;-71
2021/06/13 16:22:37;;;;;;;7.55;3.85;;;;;;;18.21;46.21;100964.44;10549742;28;20120;-72
2021/06/13 16:27:39;;;;;;;7.57;3.05;;;;;;;18.10;46.29;100956.97;10546240;28;20488;-70
2021/06/13 16:32:41;;;;;;;5.68;2.75;;;;;;;18.26;47.00;100950.91;10545447;28;20050;-71
2021/06/13 16:37:43;;;;;;;5.85;3.03;;;;;;;18.68;45.89;100947.88;10547245;28;20512;-72
2021/06/13 16:42:45;;;;;;;16.85;3.90;;;;;;;18.79;46.44;100956.22;10526777;28;20086;-70
2021/06/13 16:47:47;;;;;;;6.15;3.17;;;;;;;19.10;44.86;100949.31;10528454;28;20048;-69
2021/06/13 16:52:57;;;;;;;4.47;2.85;;;;;;;18.98;45.71;100949.94;10545908;28;20036;-70
2021/06/13 16:58:13;;;;;;;10.55;2.92;;;;;;;18.85;45.86;100939.94;10525233;28;20048;-71
2021/06/13 17:03:15;;;;;;;6.30;3.60;;;;;;;18.12;47.75;100948.91;10543587;28;20036;-70
2021/06/13 17:08:17;;;;;;;4.68;2.30;;;;;;;18.08;47.99;100948.19;10528149;28;20074;-71
2021/06/13 17:13:20;;;;;;;7.15;3.17;;;;;;;18.24;47.56;100945.66;10527919;28;20048;-70
2021/06/13 17:18:32;;;;;;;4.47;2.90;;;;;;;18.23;47.87;100951.91;10549435;28;20564;-70
2021/06/13 17:23:37;;;;;;;6.55;2.83;;;;;;;18.50;46.73;100949.66;10543429;28;20386;-70
2021/06/13 17:28:40;;;;;;;6.03;3.22;;;;;;;18.38;46.74;100945.00;10539890;28;20442;-71
2021/06/13 17:33:57;;;;;;;4.72;2.40;;;;;;;18.21;46.89;100944.94;10541861;28;20044;-70
2021/06/13 17:39:23;;;;;;;4.78;2.95;;;;;;;18.09;47.83;100941.94;10512858;28;20055;-70
2021/06/13 17:44:29;;;;;;;7.22;3.65;;;;;;;18.08;47.98;100934.91;10543730;28;20047;-71
2021/06/13 17:49:31;;;;;;;5.00;3.13;;;;;;;17.88;48.30;100929.66;10526305;28;20391;-71
2021/06/13 17:54:33;;;;;;;6.35;2.63;;;;;;;17.93;48.00;100932.09;10543777;28;20046;-70
2021/06/13 17:59:35;;;;;;;4.80;2.70;;;;;;;17.93;47.62;100933.00;10541516;28;20029;-70
2021/06/13 18:04:37;;;;;;;8.07;3.17;;;;;;;17.96;47.25;100922.19;10524098;28;20075;-70
2021/06/13 18:09:38;;;;;;;4.55;2.47;;;;;;;17.67;47.92;100925.34;10523752;28;20127;-70
2021/06/13 18:14:40;;;;;;;5.60;2.75;;;;;;;17.53;48.69;100929.53;10542971;28;20056;-69
2021/06/13 18:19:42;;;;;;;4.63;2.95;;;;;;;17.42;49.61;100929.13;10541384;28;20397;-70
2021/06/13 18:24:44;;;;;;;4.20;2.35;;;;;;;17.00;50.51;100923.94;10525010;28;20052;-70
2021/06/13 18:29:46;;;;;;;5.68;2.72;;;;;;;17.19;49.89;100924.03;10542229;28;20117;-70
2021/06/13 18:34:48;;;;;;;4.40;2.92;;;;;;;17.09;49.78;100924.44;10511583;28;20108;-69
2021/06/13 18:39:50;;;;;;;5.22;3.22;;;;;;;17.01;50.82;100926.56;10542041;28;20113;-70
2021/06/13 18:44:52;;;;;;;5.35;2.60;;;;;;;16.85;50.90;100930.81;10543606;28;20051;-70
2021/06/13 18:49:54;;;;;;;4.10;2.60;;;;;;;16.75;51.46;100935.66;10544780;28;20048;-71
2021/06/13 18:54:56;;;;;;;5.05;2.75;;;;;;;16.59;52.10;100950.47;10544511;28;20048;-70
2021/06/13 18:59:58;;;;;;;5.78;2.83;;;;;;;16.49;52.30;100949.13;10546788;28;20055;-70
2021/06/13 19:05:01;;;;;;;6.15;3.20;;;;;;;16.28;52.82;100956.19;10491443;28;20100;-71
2021/06/13 19:10:04;;;;;;;9.25;2.50;;;;;;;16.21;52.99;100955.59;10490432;28;20047;-71
2021/06/13 19:15:06;;;;;;;6.30;2.50;;;;;;;16.00;53.91;100954.66;10506682;28;20048;-70
2021/06/13 19:20:08;;;;;;;4.60;2.70;;;;;;;16.05;53.62;100959.75;10509366;28;20040;-71
2021/06/13 19:25:15;;;;;;;7.53;2.95;;;;;;;15.61;55.00;100960.53;10507871;28;20041;-71
2021/06/13 19:30:26;;;;;;;4.20;3.15;;;;;;;15.55;54.67;100965.22;10507643;28;20040;-72
2021/06/13 19:35:28;;;;;;;4.15;2.70;;;;;;;15.57;54.70;100969.50;10509411;28;20043;-71
2021/06/13 19:40:29;;;;;;;10.25;2.83;;;;;;;15.48;54.54;100966.34;10511211;28;20051;-72
2021/06/13 19:45:32;;;;;;;5.53;2.80;;;;;;;15.35;54.92;100963.28;10508695;28;20044;-72
2021/06/13 19:50:34;;;;;;;4.55;3.10;;;;;;;15.41;54.82;100967.50;10510371;28;20072;-72
2021/06/13 19:55:39;;;;;;;6.38;3.38;;;;;;;15.26;55.27;100963.63;10493045;28;20040;-71
2021/06/13 20:00:41;;;;;;;5.65;3.47;;;;;;;15.32;54.93;100971.38;10487869;28;20068;-71
2021/06/13 20:05:43;;;;;;;6.53;3.40;;;;;;;15.18;55.57;100970.97;10511032;28;20044;-75
2021/06/13 20:10:49;;;;;;;5.07;3.05;;;;;;;14.99;56.10;100974.28;10510528;28;20044;-74
2021/06/13 20:16:02;;;;;;;;;;;;;;;14.88;56.26;100966.72;10492715;28;20056;-74
2021/06/13 20:21:09;;;;;;;4.15;2.35;;;;;;;14.84;56.27;100957.16;10508184;28;19959;-75
2021/06/13 20:26:11;;;;;;;5.65;4.03;;;;;;;14.88;56.01;100963.22;10510755;28;20044;-76
2021/06/13 20:31:12;;;;;;;5.85;2.90;;;;;;;14.58;57.12;100951.88;10471689;28;20044;-75
2021/06/13 20:36:14;;;;;;;4.50;3.00;;;;;;;14.69;56.56;100964.75;10509136;28;20052;-74
2021/06/13 20:41:15;;;;;;;4.97;2.80;;;;;;;14.73;56.52;100961.06;10488539;28;20482;-75
2021/06/13 20:46:17;;;;;;;5.85;3.65;;;;;;;14.61;56.79;100954.44;10493344;28;20433;-74
2021/06/13 20:51:19;;;;;;;6.75;3.30;;;;;;;14.60;56.42;100953.56;10510029;28;20036;-75
2021/06/13 20:56:21;;;;;;;4.90;3.17;;;;;;;14.68;56.47;100955.09;10489170;28;20398;-71
2021/06/13 21:01:26;;;;;;;8.77;3.30;;;;;;;14.69;56.28;100955.03;10441895;22;20045;-72
2021/06/13 21:06:28;;;;;;;4.43;3.58;;;;;;;14.66;56.21;100957.78;10422789;28;20495;-72
2021/06/13 21:11:29;;;;;;;5.47;2.65;;;;;;;14.51;56.65;100960.94;10421042;28;20128;-72
2021/06/13 21:16:31;;;;;;;5.15;2.88;;;;;;;14.47;56.43;100965.41;10418938;28;20499;-73
2021/06/13 21:21:33;;;;;;;5.38;3.25;;;;;;;14.51;56.36;100959.16;10418665;28;20053;-73
2021/06/13 21:26:35;;;;;;;7.43;3.80;;;;;;;14.29;56.94;100956.31;10419511;28;20038;-72
2021/06/13 21:31:37;;;;;;;5.85;3.38;;;;;;;14.16;57.60;100956.75;10419448;28;20037;-71
2021/06/13 21:36:39;;;;;;;8.40;3.15;;;;;;;14.09;57.87;100956.97;10420159;28;20063;-71
2021/06/13 21:41:41;;;;;;;6.65;2.53;;;;;;;14.10;57.74;100945.47;10418275;28;20045;-71
2021/06/13 21:46:43;;;;;;;4.55;2.88;;;;;;;14.22;57.45;100953.94;10417474;28;20503;-71
2021/06/13 21:51:45;;;;;;;5.10;3.05;;;;;;;14.23;57.46;100953.88;10417998;28;20068;-72
2021/06/13 21:56:46;;;;;;;6.18;3.00;;;;;;;14.22;57.34;100951.28;10418778;28;20418;-72
2021/06/13 22:01:49;;;;;;;6.30;2.90;;;;;;;14.17;57.29;100962.03;10417484;28;20044;-71
2021/06/13 22:06:51;;;;;;;7.43;2.78;;;;;;;14.01;58.01;100955.47;10417622;28;20048;-72
2021/06/13 22:11:53;;;;;;;5.65;3.15;;;;;;;13.89;57.79;100962.84;10416343;28;20236;-72
2021/06/13 22:16:56;;;;;;;4.68;3.08;;;;;;;14.06;57.36;100969.41;10417525;28;20048;-72
2021/06/13 22:21:58;;;;;;;4.03;2.83;;;;;;;14.05;57.71;100955.31;10416768;28;20049;-72
2021/06/13 22:27:00;;;;;;;6.53;3.40;;;;;;;13.93;57.94;100960.13;10419390;28;20046;-71
2021/06/13 22:32:02;;;;;;;5.50;3.30;;;;;;;13.81;58.68;100956.97;10416652;28;20041;-71
2021/06/13 22:37:04;;;;;;;4.60;3.17;;;;;;;13.60;58.99;100958.47;10416994;28;20045;-72
2021/06/13 22:42:06;;;;;;;5.40;3.45;;;;;;;13.33;59.62;100961.91;10415311;28;20506;-72
2021/06/13 22:47:08;;;;;;;4.72;2.40;;;;;;;13.23;60.21;100963.06;10417490;28;20120;-72
2021/06/13 22:52:09;;;;;;;4.45;3.10;;;;;;;13.19;60.47;100962.22;10416530;28;20491;-71
2021/06/13 22:57:11;;;;;;;4.30;3.03;;;;;;;13.09;60.93;100959.00;10416606;28;20080;-71
2021/06/13 23:02:14;;;;;;;4.85;2.88;;;;;;;13.03;61.27;100960.94;10418453;28;20088;-72
2021/06/13 23:07:16;;;;;;;5.22;2.95;;;;;;;12.88;61.64;100965.72;10415987;28;20049;-71
2021/06/13 23:12:18;;;;;;;7.18;3.38;;;;;;;12.83;62.23;100951.78;10415982;28;20124;-72
2021/06/13 23:17:19;;;;;;;5.10;3.30;;;;;;;12.72;62.49;100961.75;10416877;28;20041;-71